createdAt,value
2022-12-08T00:00:34.969Z,2.03
2022-12-08T00:01:36.765Z,2.05
2022-12-08T00:02:38.738Z,2.04
2022-12-08T00:03:40.239Z,2.03
2022-12-08T00:04:41.922Z,2.04
2022-12-08T00:05:43.752Z,2.04
2022-12-08T00:06:45.361Z,2.04
2022-12-08T00:07:47.161Z,2.02
2022-12-08T00:08:48.816Z,2.02
2022-12-08T00:09:50.559Z,2.02
2022-12-08T00:10:52.297Z,2.03
2022-12-08T00:11:54.023Z,2.02
2022-12-08T00:12:55.773Z,2.02
2022-12-08T00:13:57.501Z,2.01
2022-12-08T00:14:59.227Z,2.02
2022-12-08T00:16:00.964Z,2.01
2022-12-08T00:17:02.754Z,2.02
2022-12-08T00:18:04.427Z,2
2022-12-08T00:19:06.224Z,2
2022-12-08T00:20:07.903Z,2
2022-12-08T00:21:09.626Z,1.98
2022-12-08T00:22:11.346Z,1.97
2022-12-08T00:23:13.102Z,1.97
2022-12-08T00:24:14.817Z,1.98
2022-12-08T00:25:16.553Z,1.97
2022-12-08T00:26:18.305Z,1.97
2022-12-08T00:27:20.069Z,1.98
2022-12-08T00:28:21.743Z,1.98
2022-12-08T00:29:23.491Z,1.98
2022-12-08T00:30:25.221Z,1.98
2022-12-08T00:31:27.010Z,1.99
2022-12-08T00:32:28.746Z,1.98
2022-12-08T00:33:30.422Z,1.97
2022-12-08T00:34:32.155Z,1.97
2022-12-08T00:35:36.528Z,1.96
2022-12-08T00:36:35.629Z,1.97
2022-12-08T00:37:37.345Z,1.96
2022-12-08T00:38:39.093Z,1.96
2022-12-08T00:39:40.826Z,1.96
2022-12-08T00:40:42.561Z,1.95
2022-12-08T00:41:44.270Z,1.94
2022-12-08T00:42:46.027Z,1.94
2022-12-08T00:43:47.759Z,1.93
2022-12-08T00:44:49.618Z,1.92
2022-12-08T00:45:51.615Z,1.91
2022-12-08T00:46:52.936Z,1.9
2022-12-08T00:47:54.670Z,1.89
2022-12-08T00:48:56.447Z,1.87
2022-12-08T00:49:58.163Z,1.86
2022-12-08T00:50:59.876Z,1.84
2022-12-08T00:52:01.609Z,1.83
2022-12-08T00:53:03.337Z,1.82
2022-12-08T00:54:05.393Z,1.82
2022-12-08T00:55:06.813Z,1.81
2022-12-08T00:56:08.557Z,1.8
2022-12-08T00:57:10.277Z,1.78
2022-12-08T00:58:12.000Z,1.79
2022-12-08T00:59:13.768Z,1.78
2022-12-08T01:00:15.486Z,1.78
2022-12-08T01:01:17.298Z,1.79
2022-12-08T01:02:18.957Z,1.8
2022-12-08T01:03:20.758Z,1.8
2022-12-08T01:04:22.429Z,1.8
2022-12-08T01:05:24.175Z,1.81
2022-12-08T01:06:25.882Z,1.81
2022-12-08T01:07:27.624Z,1.82
2022-12-08T01:08:29.358Z,1.85
2022-12-08T01:09:31.099Z,1.85
2022-12-08T01:10:32.838Z,1.86
2022-12-08T01:11:34.565Z,1.88
2022-12-08T01:12:36.294Z,1.9
2022-12-08T01:13:38.031Z,1.92
2022-12-08T01:14:39.772Z,1.93
2022-12-08T01:15:41.472Z,1.94
2022-12-08T01:16:43.468Z,1.95
2022-12-08T01:17:44.956Z,1.96
2022-12-08T01:18:46.690Z,1.98
2022-12-08T01:19:48.444Z,1.99
2022-12-08T01:20:50.165Z,2.01
2022-12-08T01:21:51.899Z,2.04
2022-12-08T01:22:53.620Z,2.04
2022-12-08T01:23:55.390Z,2.04
2022-12-08T01:24:57.082Z,2.05
2022-12-08T01:25:58.816Z,2.06
2022-12-08T01:27:00.554Z,2.07
2022-12-08T01:28:02.280Z,2.08
2022-12-08T01:29:04.132Z,2.1
2022-12-08T01:30:06.041Z,2.1
2022-12-08T01:31:07.516Z,2.1
2022-12-08T01:32:09.207Z,2.1
2022-12-08T01:33:10.957Z,2.11
2022-12-08T01:34:12.686Z,2.1
2022-12-08T01:35:14.422Z,2.1
2022-12-08T01:36:16.160Z,2.11
2022-12-08T01:37:17.873Z,2.09
2022-12-08T01:38:19.616Z,2.08
2022-12-08T01:39:21.369Z,2.07
2022-12-08T01:40:23.077Z,2.05
2022-12-08T01:41:24.823Z,2.04
2022-12-08T01:42:26.556Z,2.01
2022-12-08T01:43:28.275Z,2
2022-12-08T01:44:30.038Z,1.98
2022-12-08T01:45:31.753Z,1.98
2022-12-08T01:46:33.628Z,1.96
2022-12-08T01:47:35.335Z,1.94
2022-12-08T01:48:36.962Z,1.92
2022-12-08T01:49:38.687Z,1.9
2022-12-08T01:50:40.418Z,1.89
2022-12-08T01:51:42.165Z,1.86
2022-12-08T01:52:43.883Z,1.85
2022-12-08T01:53:45.625Z,1.82
2022-12-08T01:54:47.375Z,1.79
2022-12-08T01:55:49.093Z,1.78
2022-12-08T01:56:50.868Z,1.75
2022-12-08T01:57:52.551Z,1.72
2022-12-08T01:58:54.311Z,1.69
2022-12-08T01:59:56.022Z,1.67
2022-12-08T02:00:57.791Z,1.64
2022-12-08T02:01:59.485Z,1.62
2022-12-08T02:03:01.384Z,1.59
2022-12-08T02:04:02.968Z,1.57
2022-12-08T02:05:04.663Z,1.54
2022-12-08T02:06:06.428Z,1.51
2022-12-08T02:07:08.544Z,1.51
2022-12-08T02:08:10.150Z,1.5
2022-12-08T02:09:11.640Z,1.48
2022-12-08T02:10:13.373Z,1.45
2022-12-08T02:11:15.104Z,1.45
2022-12-08T02:12:16.820Z,1.44
2022-12-08T02:13:18.553Z,1.43
2022-12-08T02:14:20.296Z,1.42
2022-12-08T02:15:22.018Z,1.39
2022-12-08T02:16:23.820Z,1.39
2022-12-08T02:17:25.496Z,1.37
2022-12-08T02:18:27.220Z,1.36
2022-12-08T02:19:31.155Z,1.34
2022-12-08T02:20:30.701Z,1.32
2022-12-08T02:21:32.410Z,1.31
2022-12-08T02:22:34.247Z,1.28
2022-12-08T02:23:35.892Z,1.28
2022-12-08T02:24:37.631Z,1.25
2022-12-08T02:25:39.333Z,1.23
2022-12-08T02:26:41.095Z,1.21
2022-12-08T02:27:42.876Z,1.19
2022-12-08T02:28:44.555Z,1.18
2022-12-08T02:29:46.301Z,1.16
2022-12-08T02:30:48.102Z,1.14
2022-12-08T02:31:49.776Z,1.12
2022-12-08T02:32:51.506Z,1.11
2022-12-08T02:33:53.222Z,1.08
2022-12-08T02:34:54.956Z,1.08
2022-12-08T02:35:56.712Z,1.05
2022-12-08T02:36:58.433Z,1.04
2022-12-08T02:38:00.168Z,1.03
2022-12-08T02:39:01.957Z,1.02
2022-12-08T02:40:04.270Z,1
2022-12-08T02:41:05.354Z,0.98
2022-12-08T02:42:07.078Z,0.97
2022-12-08T02:43:08.809Z,0.97
2022-12-08T02:44:10.582Z,0.94
2022-12-08T02:45:12.286Z,0.94
2022-12-08T02:46:14.105Z,0.92
2022-12-08T02:47:15.740Z,0.91
2022-12-08T02:48:17.490Z,0.89
2022-12-08T02:49:19.232Z,0.89
2022-12-08T02:50:20.964Z,0.88
2022-12-08T02:51:22.699Z,0.88
2022-12-08T02:52:24.426Z,0.87
2022-12-08T02:53:26.182Z,0.88
2022-12-08T02:54:27.888Z,0.87
2022-12-08T02:55:29.626Z,0.87
2022-12-08T02:56:31.361Z,0.89
2022-12-08T02:57:33.079Z,0.88
2022-12-08T02:58:34.834Z,0.9
2022-12-08T02:59:36.560Z,0.92
2022-12-08T03:00:38.297Z,0.93
2022-12-08T03:01:40.057Z,0.94
2022-12-08T03:02:41.906Z,0.97
2022-12-08T03:03:43.492Z,0.98
2022-12-08T03:04:45.250Z,0.99
2022-12-08T03:05:46.959Z,1
2022-12-08T03:06:48.688Z,1.01
2022-12-08T03:07:50.473Z,1.03
2022-12-08T03:08:52.161Z,1.05
2022-12-08T03:09:53.903Z,1.07
2022-12-08T03:10:55.636Z,1.09
2022-12-08T03:11:57.358Z,1.11
2022-12-08T03:12:59.105Z,1.13
2022-12-08T03:14:00.837Z,1.16
2022-12-08T03:15:02.587Z,1.17
2022-12-08T03:16:04.403Z,1.2
2022-12-08T03:17:06.024Z,1.22
2022-12-08T03:18:07.752Z,1.25
2022-12-08T03:19:09.560Z,1.28
2022-12-08T03:20:11.218Z,1.3
2022-12-08T03:21:12.953Z,1.34
2022-12-08T03:22:14.701Z,1.36
2022-12-08T03:23:16.645Z,1.4
2022-12-08T03:24:18.159Z,1.42
2022-12-08T03:25:19.892Z,1.46
2022-12-08T03:26:21.628Z,1.49
2022-12-08T03:27:23.368Z,1.51
2022-12-08T03:28:25.100Z,1.54
2022-12-08T03:29:26.817Z,1.56
2022-12-08T03:30:28.559Z,1.59
2022-12-08T03:31:30.384Z,1.61
2022-12-08T03:32:32.017Z,1.64
2022-12-08T03:33:33.750Z,1.66
2022-12-08T03:34:35.511Z,1.69
2022-12-08T03:35:37.282Z,1.72
2022-12-08T03:36:38.974Z,1.74
2022-12-08T03:37:40.852Z,1.76
2022-12-08T03:38:42.430Z,1.78
2022-12-08T03:39:44.162Z,1.8
2022-12-08T03:40:45.896Z,1.81
2022-12-08T03:41:47.638Z,1.82
2022-12-08T03:42:49.346Z,1.84
2022-12-08T03:43:51.107Z,1.85
2022-12-08T03:44:52.866Z,1.85
2022-12-08T03:45:54.556Z,1.88
2022-12-08T03:46:56.392Z,1.88
2022-12-08T03:47:58.040Z,1.9
2022-12-08T03:48:59.776Z,1.9
2022-12-08T03:50:01.855Z,1.91
2022-12-08T03:51:03.429Z,1.92
2022-12-08T03:52:04.984Z,1.93
2022-12-08T03:53:06.675Z,1.94
2022-12-08T03:54:08.421Z,1.94
2022-12-08T03:55:10.158Z,1.95
2022-12-08T03:56:11.889Z,1.96
2022-12-08T03:57:13.619Z,1.97
2022-12-08T03:58:15.365Z,1.97
2022-12-08T03:59:17.093Z,1.98
2022-12-08T04:00:18.817Z,1.99
2022-12-08T04:01:20.621Z,1.98
2022-12-08T04:02:22.456Z,1.99
2022-12-08T04:03:24.138Z,2.01
2022-12-08T04:04:25.766Z,2.01
2022-12-08T04:05:27.494Z,2
2022-12-08T04:06:29.208Z,2.01
2022-12-08T04:07:30.950Z,2.01
2022-12-08T04:08:32.689Z,2.02
2022-12-08T04:09:34.430Z,2.03
2022-12-08T04:10:36.147Z,2.03
2022-12-08T04:11:37.901Z,2.02
2022-12-08T04:12:39.622Z,2.02
2022-12-08T04:13:41.375Z,2.02
2022-12-08T04:14:43.112Z,2
2022-12-08T04:15:44.830Z,2.01
2022-12-08T04:16:46.583Z,1.99
2022-12-08T04:17:48.272Z,2
2022-12-08T04:18:50.022Z,1.98
2022-12-08T04:19:51.760Z,1.97
2022-12-08T04:20:53.476Z,1.96
2022-12-08T04:21:55.248Z,1.94
2022-12-08T04:22:56.943Z,1.93
2022-12-08T04:24:01.335Z,1.91
2022-12-08T04:25:00.407Z,1.91
2022-12-08T04:26:02.158Z,1.88
2022-12-08T04:27:04.944Z,1.86
2022-12-08T04:28:05.617Z,1.85
2022-12-08T04:29:07.369Z,1.82
2022-12-08T04:30:09.090Z,1.81
2022-12-08T04:31:10.913Z,1.8
2022-12-08T04:32:12.552Z,1.78
2022-12-08T04:33:14.272Z,1.76
2022-12-08T04:34:16.026Z,1.74
2022-12-08T04:35:17.750Z,1.72
2022-12-08T04:36:19.469Z,1.7
2022-12-08T04:37:21.201Z,1.67
2022-12-08T04:38:22.949Z,1.65
2022-12-08T04:39:24.689Z,1.64
2022-12-08T04:40:26.405Z,1.61
2022-12-08T04:41:28.155Z,1.58
2022-12-08T04:42:29.876Z,1.58
2022-12-08T04:43:31.628Z,1.55
2022-12-08T04:44:33.354Z,1.54
2022-12-08T04:45:35.080Z,1.52
2022-12-08T04:46:42.984Z,1.5
2022-12-08T04:47:38.547Z,1.48
2022-12-08T04:48:40.267Z,1.47
2022-12-08T04:49:42.029Z,1.44
2022-12-08T04:50:43.736Z,1.44
2022-12-08T04:51:45.497Z,1.42
2022-12-08T04:52:47.198Z,1.41
2022-12-08T04:53:48.942Z,1.38
2022-12-08T04:54:50.686Z,1.37
2022-12-08T04:55:52.417Z,1.34
2022-12-08T04:56:54.131Z,1.33
2022-12-08T04:57:55.878Z,1.31
2022-12-08T04:58:57.610Z,1.3
2022-12-08T04:59:59.326Z,1.28
2022-12-08T05:01:01.108Z,1.25
2022-12-08T05:02:02.921Z,1.25
2022-12-08T05:03:04.651Z,1.23
2022-12-08T05:04:06.275Z,1.22
2022-12-08T05:05:08.033Z,1.2
2022-12-08T05:06:09.752Z,1.18
2022-12-08T05:07:11.481Z,1.19
2022-12-08T05:08:13.380Z,1.16
2022-12-08T05:09:15.117Z,1.14
2022-12-08T05:10:16.676Z,1.13
2022-12-08T05:11:18.409Z,1.12
2022-12-08T05:12:20.167Z,1.11
2022-12-08T05:13:21.871Z,1.09
2022-12-08T05:14:23.611Z,1.09
2022-12-08T05:15:25.333Z,1.09
2022-12-08T05:16:27.119Z,1.07
2022-12-08T05:17:28.790Z,1.07
2022-12-08T05:18:30.545Z,1.06
2022-12-08T05:19:32.285Z,1.06
2022-12-08T05:20:33.988Z,1.05
2022-12-08T05:21:35.724Z,1.05
2022-12-08T05:22:37.463Z,1.04
2022-12-08T05:23:39.220Z,1.04
2022-12-08T05:24:47.058Z,1.03
2022-12-08T05:25:42.685Z,1.02
2022-12-08T05:26:44.414Z,1.02
2022-12-08T05:27:46.145Z,1
2022-12-08T05:28:47.891Z,1
2022-12-08T05:29:49.605Z,1.01
2022-12-08T05:30:51.338Z,0.99
2022-12-08T05:31:53.167Z,1.01
2022-12-08T05:32:54.790Z,1.01
2022-12-08T05:34:02.421Z,1.01
2022-12-08T05:34:58.257Z,1.02
2022-12-08T05:35:59.998Z,1.01
2022-12-08T05:37:01.741Z,1.03
2022-12-08T05:38:03.459Z,1.02
2022-12-08T05:39:05.215Z,1.04
2022-12-08T05:40:07.140Z,1.04
2022-12-08T05:41:08.719Z,1.06
2022-12-08T05:42:10.386Z,1.05
2022-12-08T05:43:12.157Z,1.07
2022-12-08T05:44:13.888Z,1.07
2022-12-08T05:45:15.595Z,1.07
2022-12-08T05:46:17.427Z,1.08
2022-12-08T05:47:19.055Z,1.08
2022-12-08T05:48:20.805Z,1.1
2022-12-08T05:49:22.595Z,1.11
2022-12-08T05:50:24.275Z,1.11
2022-12-08T05:51:26.010Z,1.12
2022-12-08T05:52:27.733Z,1.13
2022-12-08T05:53:29.485Z,1.14
2022-12-08T05:54:31.208Z,1.14
2022-12-08T05:55:32.947Z,1.15
2022-12-08T05:56:34.659Z,1.16
2022-12-08T05:57:36.402Z,1.16
2022-12-08T05:58:38.137Z,1.16
2022-12-08T05:59:39.880Z,1.17
2022-12-08T06:00:41.594Z,1.17
2022-12-08T06:01:43.371Z,1.18
2022-12-08T06:02:45.259Z,1.19
2022-12-08T06:03:46.785Z,1.19
2022-12-08T06:04:48.546Z,1.21
2022-12-08T06:05:50.258Z,1.2
2022-12-08T06:06:51.991Z,1.21
2022-12-08T06:07:53.832Z,1.21
2022-12-08T06:08:55.485Z,1.22
2022-12-08T06:09:57.187Z,1.23
2022-12-08T06:10:58.933Z,1.22
2022-12-08T06:12:00.662Z,1.23
2022-12-08T06:13:02.455Z,1.24
2022-12-08T06:14:04.155Z,1.24
2022-12-08T06:15:05.861Z,1.24
2022-12-08T06:16:07.652Z,1.24
2022-12-08T06:17:09.400Z,1.25
2022-12-08T06:18:11.051Z,1.25
2022-12-08T06:19:12.821Z,1.26
2022-12-08T06:20:14.523Z,1.25
2022-12-08T06:21:16.258Z,1.25
2022-12-08T06:22:17.995Z,1.26
2022-12-08T06:23:19.749Z,1.25
2022-12-08T06:24:21.472Z,1.26
2022-12-08T06:25:23.191Z,1.26
2022-12-08T06:26:24.919Z,1.25
2022-12-08T06:27:26.673Z,1.26
2022-12-08T06:28:28.385Z,1.25
2022-12-08T06:29:30.120Z,1.25
2022-12-08T06:30:31.886Z,1.25
2022-12-08T06:31:33.631Z,1.25
2022-12-08T06:32:35.395Z,1.26
2022-12-08T06:33:37.040Z,1.26
2022-12-08T06:34:38.791Z,1.27
2022-12-08T06:35:40.580Z,1.27
2022-12-08T06:36:42.334Z,1.28
2022-12-08T06:37:43.984Z,1.28
2022-12-08T06:38:45.726Z,1.28
2022-12-08T06:39:47.473Z,1.29
2022-12-08T06:40:49.195Z,1.29
2022-12-08T06:41:50.922Z,1.29
2022-12-08T06:42:52.666Z,1.3
2022-12-08T06:43:54.412Z,1.3
2022-12-08T06:44:56.120Z,1.32
2022-12-08T06:45:57.943Z,1.33
2022-12-08T06:46:59.591Z,1.32
2022-12-08T06:48:01.340Z,1.33
2022-12-08T06:49:03.059Z,1.34
2022-12-08T06:50:05.085Z,1.34
2022-12-08T06:51:06.539Z,1.35
2022-12-08T06:52:08.399Z,1.36
2022-12-08T06:53:10.003Z,1.36
2022-12-08T06:54:11.743Z,1.36
2022-12-08T06:55:29.267Z,1.37
2022-12-08T06:56:15.211Z,1.37
2022-12-08T06:57:16.942Z,1.38
2022-12-08T06:58:18.675Z,1.37
2022-12-08T06:59:20.401Z,1.39
2022-12-08T07:00:22.156Z,1.39
2022-12-08T07:01:23.935Z,1.39
2022-12-08T07:02:25.768Z,1.39
2022-12-08T07:03:27.338Z,1.4
2022-12-08T07:04:29.076Z,1.4
2022-12-08T07:05:30.779Z,1.41
2022-12-08T07:06:32.546Z,1.41
2022-12-08T07:07:34.284Z,1.4
2022-12-08T07:08:36.011Z,1.41
2022-12-08T07:09:37.737Z,1.41
2022-12-08T07:10:39.478Z,1.42
2022-12-08T07:11:41.203Z,1.42
2022-12-08T07:12:42.922Z,1.42
2022-12-08T07:13:44.687Z,1.42
2022-12-08T07:14:46.410Z,1.42
2022-12-08T07:15:48.137Z,1.43
2022-12-08T07:16:49.935Z,1.42
2022-12-08T07:17:56.323Z,1.42
2022-12-08T07:18:53.353Z,1.43
2022-12-08T07:19:55.094Z,1.43
2022-12-08T07:20:56.839Z,1.43
2022-12-08T07:21:58.528Z,1.43
2022-12-08T07:23:00.362Z,1.42
2022-12-08T07:24:02.001Z,1.43
2022-12-08T07:25:03.759Z,1.44
2022-12-08T07:26:05.464Z,1.43
2022-12-08T07:27:07.342Z,1.44
2022-12-08T07:28:08.972Z,1.44
2022-12-08T07:29:10.986Z,1.44
2022-12-08T07:30:12.424Z,1.44
2022-12-08T07:31:14.302Z,1.44
2022-12-08T07:32:15.879Z,1.45
2022-12-08T07:33:17.608Z,1.45
2022-12-08T07:34:19.496Z,1.45
2022-12-08T07:35:22.836Z,1.46
2022-12-08T07:36:22.885Z,1.45
2022-12-08T07:37:24.548Z,1.45
2022-12-08T07:38:26.262Z,1.46
2022-12-08T07:39:27.993Z,1.46
2022-12-08T07:40:29.749Z,1.47
2022-12-08T07:41:31.485Z,1.47
2022-12-08T07:42:33.208Z,1.48
2022-12-08T07:43:34.926Z,1.48
2022-12-08T07:44:36.670Z,1.49
2022-12-08T07:45:38.417Z,1.49
2022-12-08T07:46:40.267Z,1.5
2022-12-08T07:47:41.914Z,1.5
2022-12-08T07:48:43.593Z,1.51
2022-12-08T07:49:45.340Z,1.51
2022-12-08T07:50:47.077Z,1.52
2022-12-08T07:51:48.935Z,1.52
2022-12-08T07:52:50.538Z,1.53
2022-12-08T07:53:54.444Z,1.53
2022-12-08T07:54:54.052Z,1.55
2022-12-08T07:55:55.631Z,1.54
2022-12-08T07:56:57.355Z,1.56
2022-12-08T07:57:59.142Z,1.55
2022-12-08T07:59:00.815Z,1.58
2022-12-08T08:00:03.102Z,1.59
2022-12-08T08:01:04.404Z,1.6
2022-12-08T08:02:23.479Z,1.6
2022-12-08T08:03:07.806Z,1.6
2022-12-08T08:04:09.677Z,1.61
2022-12-08T08:05:11.281Z,1.63
2022-12-08T08:06:12.985Z,1.64
2022-12-08T08:07:14.679Z,1.64
2022-12-08T08:08:16.554Z,1.66
2022-12-08T08:09:18.189Z,1.66
2022-12-08T08:10:19.895Z,1.68
2022-12-08T08:11:21.995Z,1.69
2022-12-08T08:12:31.158Z,1.7
2022-12-08T08:13:25.101Z,1.71
2022-12-08T08:14:26.832Z,1.73
2022-12-08T08:15:28.657Z,1.74
2022-12-08T08:16:36.552Z,1.75
2022-12-08T08:17:32.210Z,1.76
2022-12-08T08:18:33.780Z,1.77
2022-12-08T08:19:35.517Z,1.78
2022-12-08T08:20:37.240Z,1.79
2022-12-08T08:21:45.903Z,1.8
2022-12-08T08:22:40.704Z,1.82
2022-12-08T08:23:42.426Z,1.84
2022-12-08T08:24:45.178Z,1.84
2022-12-08T08:25:45.895Z,1.86
2022-12-08T08:26:47.673Z,1.87
2022-12-08T08:27:59.671Z,1.88
2022-12-08T08:32:27.966Z,1.92
2022-12-08T08:34:05.797Z,1.94
2022-12-08T08:35:09.565Z,1.95
2022-12-08T08:36:12.015Z,1.94
2022-12-08T08:37:13.855Z,1.95
2022-12-08T08:38:19.767Z,1.96
2022-12-08T08:39:19.750Z,1.95
2022-12-08T08:40:20.223Z,1.96
2022-12-08T08:41:46.206Z,1.96
2022-12-08T08:42:47.942Z,1.95
2022-12-08T08:43:54.741Z,1.96
2022-12-08T08:44:57.531Z,1.96
2022-12-08T08:45:58.302Z,1.95
2022-12-08T08:47:00.025Z,1.95
2022-12-08T08:49:55.916Z,1.97
2022-12-08T08:50:57.608Z,1.97
2022-12-08T08:51:59.351Z,1.97
2022-12-08T08:53:01.104Z,1.97
2022-12-08T08:54:02.826Z,1.98
2022-12-08T08:55:04.573Z,1.98
2022-12-08T08:56:06.293Z,1.99
2022-12-08T08:57:08.014Z,2
2022-12-08T08:58:09.732Z,2.01
2022-12-08T08:59:11.478Z,2.02
2022-12-08T09:00:13.330Z,2.02
2022-12-08T09:01:35.665Z,2.04
2022-12-08T09:02:37.306Z,2.05
2022-12-08T09:04:32.808Z,2.07
2022-12-08T09:05:34.499Z,2.08
2022-12-08T09:06:36.297Z,2.08
2022-12-08T09:16:52.973Z,2.21
2022-12-08T09:17:54.694Z,2.22
2022-12-08T09:18:56.427Z,2.24
2022-12-08T09:19:58.152Z,2.25
2022-12-08T09:20:59.961Z,2.27
2022-12-08T09:22:01.627Z,2.29
2022-12-08T09:23:03.362Z,2.3
2022-12-08T09:24:05.093Z,2.33
2022-12-08T09:25:06.826Z,2.35
2022-12-08T09:26:08.562Z,2.37
2022-12-08T09:27:10.300Z,2.4
2022-12-08T09:28:12.021Z,2.42
2022-12-08T09:29:13.802Z,2.45
2022-12-08T09:30:15.499Z,2.47
2022-12-08T09:31:17.304Z,2.49
2022-12-08T09:32:18.964Z,2.51
2022-12-08T09:33:20.694Z,2.53
2022-12-08T09:34:22.413Z,2.55
2022-12-08T09:35:24.171Z,2.58
2022-12-08T09:36:25.879Z,2.6
2022-12-08T09:37:27.643Z,2.61
2022-12-08T09:38:29.355Z,2.63
2022-12-08T09:39:31.101Z,2.66
2022-12-08T09:40:32.828Z,2.69
2022-12-08T09:41:40.343Z,2.71
2022-12-08T09:42:36.302Z,2.74
2022-12-08T09:43:38.029Z,2.76
2022-12-08T09:44:39.827Z,2.77
2022-12-08T09:45:41.495Z,2.8
2022-12-08T09:46:43.376Z,2.83
2022-12-08T09:47:44.991Z,2.85
2022-12-08T09:48:46.684Z,2.88
2022-12-08T09:49:48.432Z,2.9
2022-12-08T09:50:50.161Z,2.93
2022-12-08T09:51:51.901Z,2.94
2022-12-08T09:52:53.623Z,2.97
2022-12-08T09:53:55.369Z,2.97
2022-12-08T09:54:57.100Z,3
2022-12-08T09:55:58.850Z,3.01
2022-12-08T09:57:00.569Z,3.03
2022-12-08T09:58:02.308Z,3.03
2022-12-08T09:59:04.018Z,3.05
2022-12-08T10:00:06.154Z,3.06
2022-12-08T10:01:07.476Z,3.08
2022-12-08T10:02:09.264Z,3.1
2022-12-08T10:03:16.245Z,3.11
2022-12-08T10:04:12.694Z,3.12
2022-12-08T10:05:14.488Z,3.14
2022-12-08T10:06:16.201Z,3.15
2022-12-08T10:07:17.902Z,3.17
2022-12-08T10:08:19.707Z,3.17
2022-12-08T10:09:23.017Z,3.19
2022-12-08T10:10:23.083Z,3.19
2022-12-08T10:11:24.834Z,3.21
2022-12-08T10:12:26.597Z,3.22
2022-12-08T10:13:28.331Z,3.24
2022-12-08T10:14:30.032Z,3.24
2022-12-08T10:15:31.754Z,3.25
2022-12-08T10:16:33.548Z,3.27
2022-12-08T10:17:35.226Z,3.28
2022-12-08T10:18:36.977Z,3.3
2022-12-08T10:19:38.694Z,3.31
2022-12-08T10:20:40.451Z,3.32
2022-12-08T10:21:42.150Z,3.34
2022-12-08T10:22:45.101Z,3.35
2022-12-08T10:23:45.649Z,3.36
2022-12-08T10:24:47.355Z,3.38
2022-12-08T10:25:49.093Z,3.4
2022-12-08T10:26:50.817Z,3.4
2022-12-08T10:27:52.553Z,3.43
2022-12-08T10:28:54.294Z,3.45
2022-12-08T10:29:56.021Z,3.46
2022-12-08T10:30:57.868Z,3.47
2022-12-08T10:31:59.595Z,3.49
2022-12-08T10:33:01.220Z,3.49
2022-12-08T10:34:02.969Z,3.49
2022-12-08T10:35:04.698Z,3.51
2022-12-08T10:36:06.414Z,3.52
2022-12-08T10:37:08.162Z,3.54
2022-12-08T10:38:09.897Z,3.55
2022-12-08T10:39:11.737Z,3.56
2022-12-08T10:40:13.355Z,3.58
2022-12-08T10:41:15.108Z,3.58
2022-12-08T10:42:16.823Z,3.61
2022-12-08T10:43:18.571Z,3.63
2022-12-08T10:44:20.298Z,3.65
2022-12-08T10:45:22.009Z,3.67
2022-12-08T10:46:23.790Z,3.68
2022-12-08T10:47:25.494Z,3.69
2022-12-08T10:48:27.206Z,3.7
2022-12-08T10:49:28.973Z,3.71
2022-12-08T10:50:30.698Z,3.72
2022-12-08T10:51:32.408Z,3.72
2022-12-08T10:52:34.178Z,3.73
2022-12-08T10:53:35.913Z,3.73
2022-12-08T10:54:37.652Z,3.73
2022-12-08T10:55:39.348Z,3.73
2022-12-08T10:56:41.080Z,3.75
2022-12-08T10:57:42.814Z,3.74
2022-12-08T10:58:44.567Z,3.76
2022-12-08T10:59:46.316Z,3.75
2022-12-08T11:00:48.154Z,3.76
2022-12-08T11:01:49.944Z,3.76
2022-12-08T11:02:51.555Z,3.76
2022-12-08T11:03:53.246Z,3.76
2022-12-08T11:04:54.958Z,3.76
2022-12-08T11:05:56.689Z,3.78
2022-12-08T11:06:58.421Z,3.77
2022-12-08T11:08:00.265Z,3.78
2022-12-08T11:09:01.932Z,3.79
2022-12-08T11:10:03.944Z,3.8
2022-12-08T11:11:05.369Z,3.8
2022-12-08T11:12:07.081Z,3.81
2022-12-08T11:13:08.814Z,3.82
2022-12-08T11:14:10.562Z,3.84
2022-12-08T11:15:12.302Z,3.84
2022-12-08T11:16:14.089Z,3.84
2022-12-08T11:17:15.775Z,3.84
2022-12-08T11:18:17.503Z,3.84
2022-12-08T11:19:19.232Z,3.86
2022-12-08T11:20:20.964Z,3.85
2022-12-08T11:21:22.698Z,3.86
2022-12-08T11:22:24.419Z,3.86
2022-12-08T11:23:26.144Z,3.87
2022-12-08T11:24:30.217Z,3.89
2022-12-08T11:25:29.640Z,3.9
2022-12-08T11:26:31.377Z,3.92
2022-12-08T11:27:33.096Z,3.93
2022-12-08T11:28:34.829Z,3.93
2022-12-08T11:29:36.571Z,3.94
2022-12-08T11:30:38.296Z,3.95
2022-12-08T11:31:40.139Z,3.95
2022-12-08T11:32:41.770Z,3.96
2022-12-08T11:33:43.506Z,3.99
2022-12-08T11:34:45.234Z,3.99
2022-12-08T11:35:46.976Z,4.01
2022-12-08T11:36:48.712Z,4.03
2022-12-08T11:37:50.416Z,4.03
2022-12-08T11:38:52.159Z,4.06
2022-12-08T11:39:53.892Z,4.07
2022-12-08T11:40:55.638Z,4.08
2022-12-08T11:41:57.352Z,4.09
2022-12-08T11:42:59.081Z,4.11
2022-12-08T11:44:00.822Z,4.12
2022-12-08T11:45:02.961Z,4.13
2022-12-08T11:46:04.357Z,4.12
2022-12-08T11:47:06.021Z,4.14
2022-12-08T11:48:09.402Z,4.15
2022-12-08T11:49:09.490Z,4.16
2022-12-08T11:50:11.417Z,4.19
2022-12-08T11:51:12.947Z,4.2
2022-12-08T11:52:14.701Z,4.24
2022-12-08T11:53:16.406Z,4.27
2022-12-08T11:54:18.157Z,4.33
2022-12-08T11:55:20.018Z,4.38
2022-12-08T11:56:21.608Z,4.43
2022-12-08T11:57:23.360Z,4.5
2022-12-08T11:58:25.265Z,4.55
2022-12-08T11:59:26.823Z,4.64
2022-12-08T12:00:28.559Z,4.67
2022-12-08T12:01:30.302Z,4.73
2022-12-08T12:02:32.250Z,4.79
2022-12-08T12:03:34.070Z,4.86
2022-12-08T12:04:35.478Z,4.9
2022-12-08T12:06:05.788Z,4.94
2022-12-08T12:06:54.084Z,4.95
2022-12-08T12:07:40.772Z,4.96
2022-12-08T12:08:42.434Z,4.95
2022-12-08T12:09:44.153Z,4.93
2022-12-08T12:10:45.893Z,4.91
2022-12-08T12:11:47.641Z,4.89
2022-12-08T12:12:49.416Z,4.88
2022-12-08T12:13:51.099Z,4.88
2022-12-08T12:14:52.833Z,4.89
2022-12-08T12:15:54.554Z,4.91
2022-12-08T12:16:56.325Z,4.93
2022-12-08T12:17:59.210Z,4.96
2022-12-08T12:18:59.739Z,5
2022-12-08T12:20:01.659Z,5.06
2022-12-08T12:21:03.221Z,5.1
2022-12-08T12:22:04.945Z,5.14
2022-12-08T12:23:06.681Z,5.2
2022-12-08T12:24:08.410Z,5.24
2022-12-08T12:25:10.154Z,5.29
2022-12-08T12:26:11.869Z,5.34
2022-12-08T12:27:13.612Z,5.38
2022-12-08T12:28:15.365Z,5.41
2022-12-08T12:29:17.075Z,5.45
2022-12-08T12:30:18.800Z,5.48
2022-12-08T12:31:20.650Z,5.52
2022-12-08T12:32:22.308Z,5.54
2022-12-08T12:33:24.080Z,5.54
2022-12-08T12:34:25.748Z,5.56
2022-12-08T12:35:27.717Z,5.53
2022-12-08T12:36:29.235Z,5.54
2022-12-08T12:37:30.955Z,5.53
2022-12-08T12:38:32.670Z,5.53
2022-12-08T12:39:34.401Z,5.54
2022-12-08T12:40:36.150Z,5.49
2022-12-08T12:41:37.882Z,5.45
2022-12-08T12:42:39.618Z,5.44
2022-12-08T12:43:41.353Z,5.43
2022-12-08T12:44:43.075Z,5.4
2022-12-08T12:45:44.916Z,5.39
2022-12-08T12:46:46.565Z,5.37
2022-12-08T12:47:54.065Z,5.36
2022-12-08T12:48:50.015Z,5.36
2022-12-08T12:49:51.758Z,5.37
2022-12-08T12:50:53.494Z,5.39
2022-12-08T12:51:55.202Z,5.4
2022-12-08T12:52:56.949Z,5.43
2022-12-08T12:53:58.676Z,5.45
2022-12-08T12:55:00.437Z,5.48
2022-12-08T12:56:02.261Z,5.51
2022-12-08T12:57:03.885Z,5.54
2022-12-08T12:58:05.642Z,5.55
2022-12-08T12:59:07.382Z,5.58
2022-12-08T13:00:09.385Z,5.59
2022-12-08T13:01:10.881Z,5.61
2022-12-08T13:02:12.639Z,5.62
2022-12-08T13:03:14.310Z,5.65
2022-12-08T13:04:16.014Z,5.64
2022-12-08T13:05:17.752Z,5.63
2022-12-08T13:06:19.503Z,5.62
2022-12-08T13:07:21.215Z,5.61
2022-12-08T13:08:23.042Z,5.59
2022-12-08T13:09:24.695Z,5.59
2022-12-08T13:10:26.405Z,5.54
2022-12-08T13:11:28.161Z,5.51
2022-12-08T13:12:29.881Z,5.49
2022-12-08T13:13:31.620Z,5.45
2022-12-08T13:14:33.347Z,5.43
2022-12-08T13:15:35.083Z,5.39
2022-12-08T13:16:36.884Z,5.34
2022-12-08T13:17:38.564Z,5.3
2022-12-08T13:18:40.298Z,5.27
2022-12-08T13:19:42.016Z,5.23
2022-12-08T13:20:43.751Z,5.2
2022-12-08T13:21:45.485Z,5.16
2022-12-08T13:22:47.229Z,5.11
2022-12-08T13:23:48.980Z,5.03
2022-12-08T13:24:50.684Z,4.97
2022-12-08T13:25:52.412Z,4.89
2022-12-08T13:26:54.147Z,4.85
2022-12-08T13:27:55.898Z,4.78
2022-12-08T13:28:57.620Z,4.71
2022-12-08T13:29:59.344Z,4.64
2022-12-08T13:31:01.132Z,4.53
2022-12-08T13:32:02.825Z,4.48
2022-12-08T13:33:18.825Z,4.4
2022-12-08T13:34:06.293Z,4.34
2022-12-08T13:35:08.025Z,4.29
2022-12-08T13:36:09.759Z,4.24
2022-12-08T13:37:11.495Z,4.2
2022-12-08T13:38:13.215Z,4.15
2022-12-08T13:39:14.955Z,4.12
2022-12-08T13:40:16.690Z,4.09
2022-12-08T13:41:18.417Z,4.06
2022-12-08T13:42:20.151Z,4.04
2022-12-08T13:43:21.910Z,4.03
2022-12-08T13:45:19.834Z,4
2022-12-08T13:45:58.976Z,3.98
2022-12-08T13:47:03.185Z,3.97
2022-12-08T13:47:33.874Z,3.97
2022-12-08T13:49:32.043Z,3.96
2022-12-08T13:51:40.378Z,3.96
2022-12-08T13:54:09.833Z,3.96
2022-12-08T13:54:45.778Z,3.96
2022-12-08T13:56:05.432Z,3.96
2022-12-08T13:57:08.436Z,3.97
2022-12-08T13:57:46.196Z,3.98
2022-12-08T13:58:47.880Z,3.99
2022-12-08T13:59:49.638Z,4.01
2022-12-08T14:00:51.356Z,4.02
2022-12-08T14:01:53.164Z,4.03
2022-12-08T14:02:54.851Z,4.05
2022-12-08T14:04:28.437Z,4.08
2022-12-08T14:05:18.577Z,4.1
2022-12-08T14:06:12.354Z,4.11